In Rescue
 
Open Full Screen Window  High Contrast Mode
January 22, 2022 12:19 AM EST
Weather Information
Wind Direction
  ---
Wind Speed
  00 kt (0 mph)
Wind Gust
  00 kt (0 mph)
Altimeter
30.46 in
Visibility
10 SM
Temperature
-10° C
14° F
Dewpoint
-14° C
F
Humidity
73%
1hr Rain Fall
00.00 in.
24hr Rain Fall
00.00 in.
Sky Condition
Clear
VFR

METAR KI69 220519Z AUTO 00000KT 10SM CLR M10/M14 A3046 RMK AO2 T11031136

FAA Disclaimer: The data displayed is for advisory purposes only and is not to be used for flight planning or operations.